Time;durP1;ratioP1;P1;durP2;ratioP2;P2;SDS_P1;SDS_P2;PMS_P1;PMS_P2;Temp;Humidity;BMP_temperature;BMP_pressure;BME280_temperature;BME280_humidity;BME280_pressure;Samples;Min_cycle;Max_cycle;Signal;HPM_P1;HPM_P2
2023/05/20 01:09:16;;;;;;;6.88;2.05;;;28.50;99.90;;;;;;4682003;28;10000991;-96
2023/05/20 01:11:56;;;;;;;3.10;1.95;;;27.90;99.90;;;;;;4911052;29;20458;-96
2023/05/20 01:18:00;;;;;;;2.20;1.67;;;27.20;99.90;;;;;;4957314;23;20740;-95
2023/05/20 01:20:33;;;;;;;4.87;2.10;;;27.70;99.90;;;;;;4941891;28;20264;-96
2023/05/20 01:23:07;;;;;;;2.47;1.60;;;28.30;99.90;;;;;;5272625;23;20268;-96
2023/05/20 01:25:44;;;;;;;2.40;1.48;;;28.60;99.90;;;;;;4937385;29;20192;-96
2023/05/20 01:28:18;;;;;;;3.10;1.50;;;28.70;99.90;;;;;;4948293;28;20200;-96
2023/05/20 01:30:56;;;;;;;2.73;1.40;;;29.10;99.90;;;;;;4940598;29;20320;-96
2023/05/20 01:33:31;;;;;;;2.13;1.43;;;28.50;99.90;;;;;;4951403;28;20279;-96
2023/05/20 01:36:17;;;;;;;5.32;2.00;;;28.40;99.90;;;;;;4948657;28;20249;-96
2023/05/20 01:38:52;;;;;;;4.53;1.52;;;27.60;99.90;;;;;;4937433;29;20196;-96
2023/05/20 01:41:26;;;;;;;2.83;1.50;;;27.80;99.90;;;;;;4937185;29;20272;-95
2023/05/20 01:44:11;;;;;;;3.17;1.30;;;28.10;99.90;;;;;;4933181;29;20208;-96
2023/05/20 01:46:44;;;;;;;2.60;1.23;;;28.00;99.90;;;;;;4937932;29;20207;-96
2023/05/20 01:49:18;;;;;;;4.13;1.50;;;27.60;99.90;;;;;;4933327;29;20240;-94
2023/05/20 01:51:50;;;;;;;3.33;1.60;;;27.20;99.90;;;;;;4945603;29;20214;-96
2023/05/20 01:54:28;;;;;;;2.10;1.37;;;26.70;99.90;;;;;;4937392;29;20669;-96
2023/05/20 01:57:00;;;;;;;3.27;1.33;;;26.20;99.90;;;;;;4939407;29;20244;-96
2023/05/20 01:59:34;;;;;;;3.57;1.30;;;25.80;99.90;;;;;;4926639;29;20307;-96
2023/05/20 02:02:06;;;;;;;3.10;1.43;;;25.50;99.90;;;;;;4936639;29;20218;-96
2023/05/20 02:04:38;;;;;;;6.30;1.40;;;25.40;99.90;;;;;;4945842;28;20224;-91
2023/05/20 02:07:09;;;;;;;5.03;1.50;;;25.30;99.90;;;;;;4949131;29;20664;-90
2023/05/20 02:09:43;;;;;;;4.13;1.40;;;25.10;99.90;;;;;;4937609;29;20232;-92
2023/05/20 02:12:17;;;;;;;4.27;1.40;;;24.90;99.90;;;;;;4933894;29;20219;-91
2023/05/20 02:14:49;;;;;;;4.27;2.00;;;24.50;99.90;;;;;;4946063;29;20219;-92
2023/05/20 02:17:20;;;;;;;3.20;1.57;;;24.40;99.90;;;;;;4946484;29;20220;-91
2023/05/20 02:19:52;;;;;;;2.43;1.60;;;24.30;99.90;;;;;;4944052;29;20223;-91
2023/05/20 02:22:24;;;;;;;3.63;1.60;;;24.20;99.90;;;;;;4933684;29;20235;-92
2023/05/20 02:24:58;;;;;;;2.93;1.60;;;24.10;99.90;;;;;;4933688;29;20232;-92
2023/05/20 02:27:31;;;;;;;5.47;2.10;;;24.00;99.90;;;;;;4929767;29;20300;-93
2023/05/20 02:30:03;;;;;;;2.67;1.97;;;23.80;99.90;;;;;;4923395;29;20247;-92
2023/05/20 02:32:34;;;;;;;2.63;1.60;;;23.80;99.90;;;;;;4939001;29;20214;-93
2023/05/20 02:35:06;;;;;;;8.77;1.80;;;23.70;99.90;;;;;;4929770;29;20685;-93
2023/05/20 02:37:43;;;;;;;2.57;1.70;;;23.60;99.90;;;;;;4944013;29;20220;-96
2023/05/20 02:40:20;;;;;;;7.57;2.10;;;23.50;99.90;;;;;;4932307;29;20301;-95
2023/05/20 02:42:52;;;;;;;2.73;1.80;;;23.40;99.90;;;;;;4935001;29;20584;-96
2023/05/20 02:45:24;;;;;;;4.07;1.83;;;23.30;99.90;;;;;;4940688;29;20224;-95
2023/05/20 02:47:55;;;;;;;4.80;2.07;;;23.20;99.90;;;;;;4598236;28;10000133;-96
2023/05/20 02:50:28;;;;;;;1.97;1.73;;;23.10;99.90;;;;;;4941086;29;20236;-93
2023/05/20 02:53:05;;;;;;;4.03;1.83;;;22.90;99.90;;;;;;4938064;29;20216;-96
2023/05/20 02:55:43;;;;;;;3.00;2.37;;;22.80;99.90;;;;;;4922739;29;20213;-96
2023/05/20 02:58:16;;;;;;;4.33;2.10;;;22.70;99.90;;;;;;4927263;29;20286;-94
2023/05/20 03:00:47;;;;;;;5.90;2.20;;;22.50;99.90;;;;;;4938006;29;20223;-91
2023/05/20 03:03:19;;;;;;;4.83;2.03;;;22.40;99.90;;;;;;4955453;28;20239;-93
2023/05/20 03:05:51;;;;;;;2.70;2.03;;;22.40;99.90;;;;;;4950564;29;20201;-96
2023/05/20 03:08:24;;;;;;;4.97;2.50;;;22.30;99.90;;;;;;4938722;29;20220;-94
2023/05/20 03:10:57;;;;;;;3.40;2.00;;;22.20;99.90;;;;;;4936022;29;20240;-95
2023/05/20 03:13:28;;;;;;;4.03;2.10;;;22.00;99.90;;;;;;4934844;29;20213;-95
2023/05/20 03:16:00;;;;;;;2.77;2.20;;;21.90;99.90;;;;;;5188964;23;20449;-96
2023/05/20 03:18:32;;;;;;;6.13;3.00;;;21.80;99.90;;;;;;5756880;23;20401;-95
2023/05/20 03:21:06;;;;;;;6.27;2.77;;;21.70;99.90;;;;;;4899341;29;20233;-94
2023/05/20 03:23:37;;;;;;;3.20;1.83;;;21.60;99.90;;;;;;4902009;29;20234;-95
2023/05/20 03:26:11;;;;;;;5.30;2.50;;;21.50;99.90;;;;;;4898959;29;20209;-94
2023/05/20 03:28:43;;;;;;;3.67;2.20;;;21.30;99.90;;;;;;4883976;29;20215;-94
2023/05/20 03:31:14;;;;;;;3.93;2.37;;;21.30;99.90;;;;;;4901359;29;20324;-94
2023/05/20 03:33:46;;;;;;;5.80;2.43;;;21.20;99.90;;;;;;4900777;29;20218;-95
2023/05/20 03:36:18;;;;;;;5.97;2.60;;;21.00;99.90;;;;;;4900210;29;20748;-92
2023/05/20 03:38:50;;;;;;;5.87;2.10;;;20.90;99.90;;;;;;4925367;23;20306;-94
2023/05/20 03:41:25;;;;;;;5.47;1.80;;;20.90;99.90;;;;;;4926281;29;20217;-94
2023/05/20 03:43:56;;;;;;;4.30;1.77;;;20.80;99.90;;;;;;4920635;29;20220;-93
2023/05/20 03:46:29;;;;;;;4.47;1.97;;;20.70;99.90;;;;;;4913672;29;20232;-95
2023/05/20 03:49:02;;;;;;;2.57;1.93;;;20.60;99.90;;;;;;4933059;29;20215;-95
2023/05/20 03:51:34;;;;;;;3.93;1.70;;;20.60;99.90;;;;;;4920670;29;20244;-95
2023/05/20 03:54:05;;;;;;;3.27;1.90;;;20.40;99.90;;;;;;4919425;29;20209;-94
2023/05/20 03:56:40;;;;;;;6.00;1.90;;;20.40;99.90;;;;;;4919158;29;20265;-94
2023/05/20 03:59:12;;;;;;;3.50;1.30;;;20.30;99.90;;;;;;4919561;29;20213;-93
2023/05/20 04:01:43;;;;;;;2.47;1.53;;;20.30;99.90;;;;;;4918241;29;20213;-94
2023/05/20 04:04:15;;;;;;;3.10;1.47;;;20.10;99.90;;;;;;4918628;29;20273;-94
2023/05/20 04:06:47;;;;;;;4.40;1.60;;;20.10;99.90;;;;;;4914853;29;20268;-94
2023/05/20 04:09:19;;;;;;;3.37;1.50;;;20.00;99.90;;;;;;4917624;29;20235;-94
2023/05/20 04:11:53;;;;;;;2.80;1.23;;;20.00;99.90;;;;;;4918448;29;20251;-93
2023/05/20 04:14:25;;;;;;;4.13;1.57;;;19.90;99.90;;;;;;4919072;29;20666;-95
2023/05/20 04:16:56;;;;;;;3.13;1.30;;;19.80;99.90;;;;;;4921655;29;20659;-93
2023/05/20 04:19:28;;;;;;;1.63;1.10;;;19.70;99.90;;;;;;4918213;29;20211;-94
2023/05/20 04:22:00;;;;;;;3.73;1.30;;;19.70;99.90;;;;;;4919689;29;20585;-95
2023/05/20 04:24:32;;;;;;;3.27;1.00;;;19.60;99.90;;;;;;4923767;29;20217;-94
2023/05/20 04:27:06;;;;;;;4.73;0.97;;;19.50;99.90;;;;;;4919870;29;20236;-95
2023/05/20 04:29:40;;;;;;;5.60;1.00;;;19.30;99.90;;;;;;4919593;29;20376;-94
2023/05/20 04:32:12;;;;;;;2.23;1.20;;;19.30;99.90;;;;;;4920101;29;20653;-94
2023/05/20 04:34:43;;;;;;;2.17;1.13;;;19.10;99.90;;;;;;4918230;29;20238;-93
2023/05/20 04:37:16;;;;;;;1.50;1.00;;;19.10;99.90;;;;;;4920573;29;20223;-94
2023/05/20 04:39:48;;;;;;;2.13;1.20;;;19.00;99.90;;;;;;4918156;29;20224;-94
2023/05/20 04:42:22;;;;;;;2.13;1.50;;;19.10;99.90;;;;;;4923225;29;20295;-95
2023/05/20 04:44:54;;;;;;;1.47;0.97;;;19.00;99.90;;;;;;4926984;29;20291;-93
2023/05/20 04:47:26;;;;;;;2.10;1.10;;;19.00;99.90;;;;;;4918109;29;20296;-94
2023/05/20 04:50:00;;;;;;;2.03;0.90;;;19.00;99.90;;;;;;4927253;29;20209;-94
2023/05/20 04:52:32;;;;;;;2.43;0.83;;;19.00;99.90;;;;;;4918407;29;20244;-94
2023/05/20 04:55:04;;;;;;;1.27;0.90;;;19.00;99.90;;;;;;4918289;29;20297;-94
2023/05/20 04:57:39;;;;;;;1.50;1.00;;;19.00;99.90;;;;;;4917776;29;20215;-94
2023/05/20 05:00:12;;;;;;;1.23;0.80;;;19.00;99.90;;;;;;4913117;29;20221;-94
2023/05/20 05:02:46;;;;;;;4.27;1.37;;;19.00;99.90;;;;;;4917754;29;20208;-94
2023/05/20 05:05:17;;;;;;;2.10;1.10;;;18.90;99.90;;;;;;4921283;29;20225;-93
2023/05/20 05:07:49;;;;;;;1.90;1.03;;;18.90;99.90;;;;;;4918691;29;20208;-93
2023/05/20 05:10:23;;;;;;;2.70;1.23;;;18.90;99.90;;;;;;4918919;29;20217;-94
2023/05/20 05:12:59;;;;;;;1.37;0.90;;;18.90;99.90;;;;;;4919070;29;20235;-94
2023/05/20 05:15:30;;;;;;;2.07;0.80;;;18.90;99.90;;;;;;4939091;29;20185;-95
2023/05/20 05:18:03;;;;;;;2.17;0.93;;;18.80;99.90;;;;;;4937904;29;20209;-96
2023/05/20 05:20:35;;;;;;;2.33;1.13;;;18.80;99.90;;;;;;4930403;29;20208;-95
2023/05/20 05:23:07;;;;;;;1.77;0.80;;;18.70;99.90;;;;;;4924311;29;20217;-96
2023/05/20 05:25:39;;;;;;;4.43;1.10;;;18.80;99.90;;;;;;4908903;29;20219;-95
2023/05/20 05:28:12;;;;;;;3.00;1.27;;;18.70;99.90;;;;;;4921125;29;20260;-95
2023/05/20 05:30:44;;;;;;;2.03;1.10;;;18.80;99.90;;;;;;4924898;29;20219;-95
2023/05/20 05:33:19;;;;;;;3.40;1.23;;;18.70;99.90;;;;;;4922359;29;20231;-95
2023/05/20 05:35:51;;;;;;;2.13;1.00;;;18.70;99.90;;;;;;4923414;29;20261;-96
2023/05/20 05:38:23;;;;;;;2.30;1.00;;;18.70;99.90;;;;;;4922522;29;20240;-96
2023/05/20 05:40:55;;;;;;;4.27;1.10;;;18.60;99.90;;;;;;4931659;29;20213;-94
2023/05/20 05:43:29;;;;;;;4.00;1.40;;;18.60;99.90;;;;;;4925448;29;20236;-95
2023/05/20 05:46:01;;;;;;;6.63;1.20;;;18.60;99.90;;;;;;4926498;29;20209;-94
2023/05/20 05:48:33;;;;;;;2.23;1.03;;;18.50;99.90;;;;;;4931755;29;20212;-92
2023/05/20 05:51:06;;;;;;;2.00;1.50;;;18.40;99.90;;;;;;4919440;29;20233;-93
2023/05/20 05:53:37;;;;;;;2.53;1.37;;;18.40;99.90;;;;;;4928290;29;20291;-94
2023/05/20 05:56:10;;;;;;;3.90;1.30;;;18.30;99.90;;;;;;4919543;29;20674;-93
2023/05/20 05:58:44;;;;;;;1.90;1.23;;;18.30;99.90;;;;;;4922140;29;20213;-94
2023/05/20 06:01:15;;;;;;;2.20;1.30;;;18.30;99.90;;;;;;4922423;29;20225;-95
2023/05/20 06:03:47;;;;;;;2.93;1.77;;;18.30;99.90;;;;;;4921708;29;20710;-95
2023/05/20 06:06:19;;;;;;;3.67;1.60;;;18.40;99.90;;;;;;4921332;29;20236;-94
2023/05/20 06:08:50;;;;;;;3.60;1.60;;;18.40;99.90;;;;;;4919761;29;20217;-95
2023/05/20 06:11:22;;;;;;;4.10;1.67;;;18.30;99.90;;;;;;4919741;29;20612;-95
2023/05/20 06:13:57;;;;;;;1.77;1.47;;;18.40;99.90;;;;;;4926187;29;20515;-94
2023/05/20 06:16:29;;;;;;;2.57;1.30;;;18.30;99.90;;;;;;4928558;29;20208;-94
2023/05/20 06:19:01;;;;;;;3.23;1.20;;;18.30;99.90;;;;;;4919716;29;20223;-95
2023/05/20 06:21:33;;;;;;;5.57;1.20;;;18.20;99.90;;;;;;4916942;29;20209;-94
2023/05/20 06:24:06;;;;;;;3.30;1.07;;;18.20;99.90;;;;;;4918911;29;20240;-96
2023/05/20 06:26:37;;;;;;;4.07;1.13;;;18.20;99.90;;;;;;4920377;29;20269;-95
2023/05/20 06:29:12;;;;;;;3.87;1.30;;;18.30;99.90;;;;;;4936563;29;20212;-96
2023/05/20 06:31:44;;;;;;;5.03;1.33;;;18.10;99.90;;;;;;4925030;29;20264;-95
2023/05/20 06:34:17;;;;;;;5.43;1.37;;;18.00;99.90;;;;;;4932957;29;20197;-96
2023/05/20 06:36:49;;;;;;;4.67;1.37;;;18.00;99.90;;;;;;4937509;29;20216;-94
2023/05/20 06:39:21;;;;;;;6.90;1.50;;;17.90;99.90;;;;;;4936497;29;20213;-94
2023/05/20 06:41:54;;;;;;;5.07;1.47;;;17.90;99.90;;;;;;4936423;29;20237;-96
2023/05/20 06:44:28;;;;;;;4.43;1.60;;;17.80;99.90;;;;;;4930415;29;20701;-95
2023/05/20 06:47:00;;;;;;;5.47;1.40;;;17.80;99.90;;;;;;4926821;29;20291;-94
2023/05/20 06:49:32;;;;;;;3.03;1.40;;;17.80;99.90;;;;;;4915601;29;20669;-93
2023/05/20 06:52:03;;;;;;;3.33;1.50;;;17.80;99.90;;;;;;4919073;29;20240;-93
2023/05/20 06:54:38;;;;;;;3.40;1.50;;;17.70;99.90;;;;;;4920231;29;20223;-93
2023/05/20 06:57:10;;;;;;;4.37;1.57;;;17.70;99.90;;;;;;4918568;29;20224;-93
2023/05/20 06:59:43;;;;;;;3.10;1.20;;;17.70;99.90;;;;;;4919651;29;20205;-94
2023/05/20 07:02:16;;;;;;;2.67;1.37;;;17.70;99.90;;;;;;4923307;29;20224;-93
2023/05/20 07:04:47;;;;;;;2.40;1.33;;;17.70;99.90;;;;;;4925556;29;20237;-94
2023/05/20 07:07:19;;;;;;;3.10;1.30;;;17.60;99.90;;;;;;4924747;29;20233;-95
2023/05/20 07:09:50;;;;;;;3.93;1.30;;;17.60;99.90;;;;;;4923940;29;20261;-93
2023/05/20 07:12:21;;;;;;;3.30;1.37;;;17.60;99.90;;;;;;4925915;29;20233;-93
2023/05/20 07:14:54;;;;;;;4.50;1.30;;;17.50;99.90;;;;;;4924099;29;20685;-94
2023/05/20 07:17:28;;;;;;;4.33;1.50;;;17.50;99.90;;;;;;4924907;29;20200;-94
2023/05/20 07:19:59;;;;;;;5.30;1.80;;;17.50;99.90;;;;;;4920507;29;20654;-93
2023/05/20 07:22:31;;;;;;;1.93;1.27;;;17.50;99.90;;;;;;4918342;29;20207;-94
2023/05/20 07:25:02;;;;;;;3.27;1.33;;;17.40;99.90;;;;;;4930226;29;20228;-93
2023/05/20 07:27:34;;;;;;;3.20;1.37;;;17.40;99.90;;;;;;4938146;29;20205;-94
2023/05/20 07:30:09;;;;;;;1.83;1.40;;;17.40;99.90;;;;;;4948638;29;20228;-94
2023/05/20 07:32:42;;;;;;;3.70;1.80;;;17.40;99.90;;;;;;4928364;29;20236;-96
2023/05/20 07:35:14;;;;;;;4.70;1.63;;;17.40;99.90;;;;;;4930248;29;20201;-94
2023/05/20 07:37:45;;;;;;;7.10;1.70;;;17.30;99.90;;;;;;4935198;29;20255;-93
2023/05/20 07:40:17;;;;;;;3.40;1.63;;;17.30;99.90;;;;;;4951040;29;20208;-94
2023/05/20 07:42:48;;;;;;;4.33;1.40;;;17.30;99.90;;;;;;4939637;29;20247;-93
2023/05/20 07:45:23;;;;;;;4.10;1.70;;;17.20;99.90;;;;;;4933733;29;20272;-94
2023/05/20 07:47:54;;;;;;;4.03;1.40;;;17.20;99.90;;;;;;4925357;29;20306;-94
2023/05/20 07:50:26;;;;;;;5.17;1.30;;;17.20;99.90;;;;;;4936078;29;20559;-94
2023/05/20 07:52:58;;;;;;;5.37;1.80;;;17.20;99.90;;;;;;4928630;29;20233;-96
2023/05/20 07:55:30;;;;;;;4.57;1.70;;;17.20;99.90;;;;;;4919065;29;20207;-95
2023/05/20 07:58:01;;;;;;;4.50;1.50;;;17.20;99.90;;;;;;4917287;29;20232;-94
2023/05/20 08:00:36;;;;;;;3.27;1.57;;;17.10;99.90;;;;;;4932499;29;20208;-94
2023/05/20 08:03:07;;;;;;;4.27;2.00;;;17.10;99.90;;;;;;4932503;29;20200;-94
2023/05/20 08:05:41;;;;;;;4.77;1.90;;;17.10;99.90;;;;;;4915291;29;20209;-95
2023/05/20 08:08:13;;;;;;;5.40;1.80;;;17.10;99.90;;;;;;4910913;29;20213;-94
2023/05/20 08:10:45;;;;;;;5.37;2.10;;;17.00;99.90;;;;;;4932502;29;20213;-94
2023/05/20 08:13:20;;;;;;;4.37;1.70;;;17.10;99.90;;;;;;4915893;29;20249;-93
2023/05/20 08:15:55;;;;;;;3.10;1.80;;;17.00;99.90;;;;;;4904815;29;20217;-93
2023/05/20 08:18:27;;;;;;;4.80;2.00;;;17.00;99.90;;;;;;4898642;29;20268;-93
2023/05/20 08:20:59;;;;;;;3.23;1.60;;;17.00;99.90;;;;;;4910459;29;20201;-95
2023/05/20 08:23:30;;;;;;;5.20;1.77;;;16.90;99.90;;;;;;4917754;29;20219;-93
2023/05/20 08:26:06;;;;;;;4.90;1.80;;;16.80;99.90;;;;;;4918457;29;20259;-94
2023/05/20 08:28:38;;;;;;;5.03;1.80;;;16.70;99.90;;;;;;4918855;29;20213;-95
2023/05/20 08:31:12;;;;;;;5.23;1.90;;;16.60;99.90;;;;;;4936158;29;20264;-93
2023/05/20 08:33:44;;;;;;;4.80;1.60;;;16.70;99.90;;;;;;4937060;29;20220;-92
2023/05/20 08:36:15;;;;;;;4.93;2.07;;;16.50;99.90;;;;;;4936491;29;20202;-94
2023/05/20 08:38:47;;;;;;;4.63;1.97;;;16.50;99.90;;;;;;4935691;29;20301;-93
2023/05/20 08:41:21;;;;;;;5.70;2.00;;;16.50;99.90;;;;;;4940094;29;20269;-93
2023/05/20 08:43:53;;;;;;;2.57;1.60;;;16.50;99.90;;;;;;4938072;29;20319;-93
2023/05/20 08:46:27;;;;;;;2.97;1.77;;;16.50;99.90;;;;;;4937997;29;20192;-95
2023/05/20 08:48:59;;;;;;;3.67;1.60;;;16.40;99.90;;;;;;4923332;29;20209;-95
2023/05/20 08:51:34;;;;;;;4.33;1.80;;;16.30;99.90;;;;;;4904812;29;20224;-94
2023/05/20 08:54:06;;;;;;;3.97;1.70;;;16.30;99.90;;;;;;4917159;29;20228;-95
2023/05/20 08:56:38;;;;;;;3.20;1.73;;;16.40;99.90;;;;;;4918349;29;20208;-94
2023/05/20 08:59:10;;;;;;;4.57;1.70;;;16.40;99.90;;;;;;4917241;29;20221;-95
2023/05/20 09:01:45;;;;;;;5.47;1.90;;;16.50;99.90;;;;;;4924098;29;20205;-95
2023/05/20 09:04:17;;;;;;;4.90;1.70;;;16.50;99.90;;;;;;4938186;29;20291;-95
2023/05/20 09:06:51;;;;;;;5.70;1.80;;;16.40;99.90;;;;;;4928871;29;20216;-96
2023/05/20 09:09:23;;;;;;;4.97;1.60;;;16.50;99.90;;;;;;4936909;29;20256;-93
2023/05/20 09:11:56;;;;;;;3.30;1.67;;;16.40;99.90;;;;;;4938415;29;20217;-95
2023/05/20 09:14:28;;;;;;;3.53;1.70;;;16.40;99.90;;;;;;4919738;29;20252;-94
2023/05/20 09:17:02;;;;;;;2.80;1.50;;;16.30;99.90;;;;;;4908251;29;20206;-96
2023/05/20 09:19:35;;;;;;;4.33;1.50;;;16.30;99.90;;;;;;4915071;29;20299;-94
2023/05/20 09:22:06;;;;;;;4.87;1.77;;;16.30;99.90;;;;;;4917507;29;20212;-94
2023/05/20 09:24:37;;;;;;;3.50;1.70;;;16.20;99.90;;;;;;4919327;29;20219;-94
2023/05/20 09:27:09;;;;;;;3.10;1.53;;;16.20;99.90;;;;;;4919586;29;20219;-92
2023/05/20 09:29:42;;;;;;;5.00;1.60;;;16.10;99.90;;;;;;4919023;29;20216;-93
2023/05/20 09:32:16;;;;;;;5.70;1.50;;;16.10;99.90;;;;;;4918460;29;20227;-92
2023/05/20 09:34:48;;;;;;;3.23;1.57;;;16.10;99.90;;;;;;4921966;29;20241;-93
2023/05/20 09:37:22;;;;;;;4.17;1.63;;;16.10;99.90;;;;;;4935622;29;20216;-94
2023/05/20 09:39:58;;;;;;;4.37;1.60;;;16.00;99.90;;;;;;4937996;29;20231;-94
2023/05/20 09:42:37;;;;;;;4.37;1.87;;;16.00;99.90;;;;;;4939835;29;20239;-93
2023/05/20 09:45:10;;;;;;;4.27;1.83;;;16.00;99.90;;;;;;4937205;29;20208;-92
2023/05/20 09:47:46;;;;;;;4.07;1.73;;;16.00;99.90;;;;;;4938292;29;20212;-95
2023/05/20 09:50:20;;;;;;;4.77;1.83;;;16.10;99.90;;;;;;4935471;29;20647;-94
2023/05/20 09:52:52;;;;;;;4.03;1.47;;;16.00;99.90;;;;;;4937611;29;20309;-94
2023/05/20 09:55:25;;;;;;;4.17;1.33;;;16.00;99.90;;;;;;4932762;29;20212;-96
2023/05/20 09:57:57;;;;;;;5.07;1.73;;;16.00;99.90;;;;;;4953693;29;20264;-94
2023/05/20 10:00:28;;;;;;;5.37;1.80;;;16.00;99.90;;;;;;4951425;29;20209;-95
2023/05/20 10:03:05;;;;;;;9.60;2.33;;;16.10;99.90;;;;;;4938812;29;20238;-95
2023/05/20 10:05:43;;;;;;;7.10;2.30;;;15.90;99.90;;;;;;4938638;29;20213;-96
2023/05/20 10:08:42;;;;;;;10.03;2.20;;;15.80;99.90;;;;;;4940817;29;20196;-95
2023/05/20 10:11:21;;;;;;;5.30;2.00;;;15.60;99.90;;;;;;4926987;29;20191;-95
2023/05/20 10:14:31;;;;;;;3.97;2.10;;;15.50;99.90;;;;;;4929044;29;20319;-95
2023/05/20 10:17:08;;;;;;;5.37;2.47;;;15.20;99.90;;;;;;4922018;29;20626;-95
2023/05/20 10:19:43;;;;;;;3.93;1.80;;;15.10;99.90;;;;;;4922031;29;20228;-95
2023/05/20 10:22:15;;;;;;;7.83;2.30;;;14.90;99.90;;;;;;4922484;29;20208;-96
2023/05/20 10:24:48;;;;;;;6.20;2.13;;;14.80;99.90;;;;;;4921696;29;20209;-93
2023/05/20 10:27:20;;;;;;;6.87;2.70;;;14.70;99.90;;;;;;4909802;29;20213;-94
2023/05/20 10:29:54;;;;;;;5.47;2.13;;;14.50;99.90;;;;;;4910145;29;20682;-93
2023/05/20 10:32:30;;;;;;;5.63;2.07;;;14.50;99.90;;;;;;4901479;29;20209;-93
2023/05/20 10:35:06;;;;;;;3.60;1.80;;;14.50;99.90;;;;;;4908077;29;20347;-93
2023/05/20 10:37:43;;;;;;;3.60;1.80;;;14.50;99.90;;;;;;4918226;29;20669;-93
2023/05/20 10:40:17;;;;;;;4.33;1.90;;;14.40;99.90;;;;;;4919917;29;20235;-92
2023/05/20 10:42:48;;;;;;;2.83;1.93;;;14.40;99.90;;;;;;4919989;29;20212;-93
2023/05/20 10:45:31;;;;;;;2.33;1.53;;;14.40;99.90;;;;;;4919452;29;20217;-93
2023/05/20 10:48:03;;;;;;;6.70;2.10;;;14.50;99.90;;;;;;4919358;29;20242;-94
2023/05/20 10:50:41;;;;;;;3.47;1.83;;;14.50;99.90;;;;;;4923942;29;20674;-93
2023/05/20 10:53:14;;;;;;;5.30;1.80;;;14.50;99.90;;;;;;4938747;29;20209;-94
2023/05/20 10:56:02;;;;;;;3.47;2.00;;;14.50;99.90;;;;;;4931962;29;20201;-94
2023/05/20 10:58:39;;;;;;;3.83;1.70;;;14.50;99.90;;;;;;4920066;29;20620;-94
2023/05/20 11:01:12;;;;;;;4.97;2.20;;;14.40;99.90;;;;;;4919622;29;20209;-93
2023/05/20 11:03:47;;;;;;;7.43;2.00;;;14.40;99.90;;;;;;4917332;29;20236;-95
2023/05/20 11:06:27;;;;;;;6.13;2.50;;;14.40;99.90;;;;;;4916421;29;20212;-94
2023/05/20 11:09:06;;;;;;;4.03;1.90;;;14.40;99.90;;;;;;4919299;29;20669;-94
2023/05/20 11:11:37;;;;;;;3.40;1.80;;;14.40;99.90;;;;;;4915253;29;20213;-96
2023/05/20 11:14:12;;;;;;;3.63;1.93;;;14.40;99.90;;;;;;4920279;29;20319;-94
2023/05/20 11:16:44;;;;;;;3.03;1.50;;;14.30;99.90;;;;;;4919693;29;20204;-94
2023/05/20 11:19:17;;;;;;;5.17;1.90;;;14.30;99.90;;;;;;4918143;29;20225;-94
2023/05/20 11:21:52;;;;;;;5.47;2.03;;;14.20;99.90;;;;;;4916261;29;20220;-94
2023/05/20 11:24:28;;;;;;;3.47;1.93;;;14.20;99.90;;;;;;4919408;29;20216;-94
2023/05/20 11:27:02;;;;;;;3.07;2.10;;;14.20;99.90;;;;;;4920510;29;20649;-93
2023/05/20 11:29:35;;;;;;;3.63;1.97;;;14.30;99.90;;;;;;4918613;29;20219;-92
2023/05/20 11:32:08;;;;;;;3.87;1.90;;;14.20;99.90;;;;;;4932572;29;20209;-94
2023/05/20 11:34:41;;;;;;;3.67;1.80;;;14.20;99.90;;;;;;4929993;29;20244;-93
2023/05/20 11:37:16;;;;;;;6.03;2.33;;;14.10;99.90;;;;;;4919821;29;20224;-92
2023/05/20 11:39:48;;;;;;;2.93;1.43;;;14.20;99.90;;;;;;4917195;29;20217;-94
2023/05/20 11:42:19;;;;;;;4.10;1.93;;;14.10;99.90;;;;;;4918040;29;20219;-93
2023/05/20 11:44:51;;;;;;;3.87;1.70;;;14.00;99.90;;;;;;4925829;29;20276;-93
2023/05/20 11:47:28;;;;;;;3.67;1.70;;;14.00;99.90;;;;;;4938003;29;20277;-93
2023/05/20 11:50:00;;;;;;;4.40;1.87;;;13.90;99.90;;;;;;4937830;29;20196;-94
2023/05/20 11:52:35;;;;;;;3.23;1.53;;;13.90;99.90;;;;;;4927142;29;20205;-92
2023/05/20 11:55:12;;;;;;;4.20;2.10;;;13.90;99.90;;;;;;4919718;29;20241;-92
2023/05/20 11:57:43;;;;;;;5.70;1.90;;;13.90;99.90;;;;;;4917666;29;20205;-92
2023/05/20 12:00:16;;;;;;;5.93;1.90;;;13.90;99.90;;;;;;4918818;29;20264;-94
2023/05/20 12:02:48;;;;;;;5.10;1.90;;;13.70;99.90;;;;;;4918499;29;20209;-94
2023/05/20 12:05:20;;;;;;;5.57;2.10;;;13.70;99.90;;;;;;4916759;29;20221;-95
2023/05/20 12:07:54;;;;;;;4.03;1.90;;;13.70;99.90;;;;;;4917742;29;20215;-95
2023/05/20 12:10:25;;;;;;;4.17;1.67;;;13.70;99.90;;;;;;4917700;29;20964;-95
2023/05/20 12:12:59;;;;;;;5.43;1.70;;;13.70;99.90;;;;;;4929872;29;20267;-93
2023/05/20 12:15:31;;;;;;;5.63;1.77;;;13.60;99.90;;;;;;4916368;29;20243;-93
2023/05/20 12:18:06;;;;;;;5.47;2.10;;;13.60;99.90;;;;;;4898190;29;20225;-93
2023/05/20 12:20:38;;;;;;;4.33;2.00;;;13.60;99.90;;;;;;4905839;29;20224;-93
2023/05/20 12:23:11;;;;;;;6.43;2.03;;;13.70;99.90;;;;;;4918715;29;20220;-94
2023/05/20 12:25:44;;;;;;;3.70;1.73;;;13.70;99.90;;;;;;4917866;29;20205;-93
2023/05/20 12:28:18;;;;;;;4.13;1.90;;;13.70;99.90;;;;;;4922603;29;20641;-94
2023/05/20 12:30:50;;;;;;;4.03;2.00;;;13.70;99.90;;;;;;4917975;29;20588;-93
2023/05/20 12:33:22;;;;;;;3.23;1.73;;;13.70;99.90;;;;;;4905473;29;20816;-94
2023/05/20 12:35:54;;;;;;;4.57;1.87;;;13.60;99.90;;;;;;4920560;29;20252;-94
2023/05/20 12:38:27;;;;;;;2.20;1.60;;;13.60;99.90;;;;;;4924773;29;20228;-94
2023/05/20 12:40:59;;;;;;;3.90;1.93;;;13.70;99.90;;;;;;4921097;29;20280;-93
2023/05/20 12:43:30;;;;;;;2.70;1.73;;;13.60;99.90;;;;;;4923167;29;20231;-93
2023/05/20 12:46:05;;;;;;;4.37;2.10;;;13.70;99.90;;;;;;4918146;29;20272;-96
2023/05/20 12:48:36;;;;;;;5.67;2.67;;;13.70;99.90;;;;;;4914268;29;20205;-93
2023/05/20 12:51:11;;;;;;;5.07;1.67;;;13.60;99.90;;;;;;4913653;29;20216;-94
2023/05/20 12:53:47;;;;;;;3.77;1.80;;;13.60;99.90;;;;;;4920784;29;20236;-94
2023/05/20 12:56:21;;;;;;;3.67;1.60;;;13.60;99.90;;;;;;4919766;29;20236;-93
2023/05/20 12:58:52;;;;;;;5.37;2.10;;;13.60;99.90;;;;;;4922400;29;20225;-92
2023/05/20 13:01:25;;;;;;;3.83;1.90;;;13.70;99.90;;;;;;4914617;29;20270;-92
2023/05/20 13:03:57;;;;;;;3.53;1.70;;;13.60;99.90;;;;;;4918533;29;20216;-95
2023/05/20 13:06:30;;;;;;;6.03;2.03;;;13.70;99.90;;;;;;4932042;29;20241;-94
2023/05/20 13:09:04;;;;;;;4.80;2.07;;;13.60;99.90;;;;;;4917313;29;20215;-94
2023/05/20 13:11:36;;;;;;;3.80;1.77;;;13.60;99.90;;;;;;4925375;29;20220;-93
2023/05/20 13:14:08;;;;;;;4.47;2.10;;;13.60;99.90;;;;;;4921522;29;20251;-94
2023/05/20 13:16:40;;;;;;;4.53;2.27;;;13.70;99.90;;;;;;4927454;29;20240;-92
2023/05/20 13:19:12;;;;;;;5.97;2.20;;;13.70;99.90;;;;;;4941527;29;20652;-94
2023/05/20 13:21:43;;;;;;;4.13;1.83;;;13.60;99.90;;;;;;4925703;29;20634;-93
2023/05/20 13:24:17;;;;;;;6.73;2.30;;;13.70;99.90;;;;;;4907817;29;20301;-95
2023/05/20 13:26:49;;;;;;;4.47;1.80;;;13.80;99.90;;;;;;4914039;29;20272;-95
2023/05/20 13:29:22;;;;;;;3.50;1.70;;;13.80;99.90;;;;;;4919150;29;20216;-93
2023/05/20 13:31:54;;;;;;;5.00;1.80;;;13.80;99.90;;;;;;4929928;29;20670;-94
2023/05/20 13:34:25;;;;;;;4.77;2.10;;;13.80;99.90;;;;;;4923673;29;20303;-95
2023/05/20 13:36:57;;;;;;;4.50;1.80;;;13.80;99.90;;;;;;4916341;29;20240;-93
2023/05/20 13:39:33;;;;;;;7.27;2.10;;;13.90;99.90;;;;;;4915019;29;20300;-93
2023/05/20 13:42:05;;;;;;;5.30;2.10;;;13.90;99.90;;;;;;4919495;29;20311;-94
2023/05/20 13:44:37;;;;;;;4.07;2.10;;;14.00;99.90;;;;;;4920595;29;20737;-94
2023/05/20 13:47:08;;;;;;;8.80;2.03;;;14.00;99.90;;;;;;4919079;29;20215;-93
2023/05/20 13:49:43;;;;;;;4.83;2.17;;;14.00;99.90;;;;;;4920064;29;20209;-93
2023/05/20 13:52:14;;;;;;;5.03;2.00;;;14.00;99.90;;;;;;4914779;29;20216;-93
2023/05/20 13:54:48;;;;;;;5.60;2.37;;;14.00;99.90;;;;;;4926808;29;20221;-93
2023/05/20 13:57:19;;;;;;;4.67;2.03;;;14.10;99.90;;;;;;4935702;29;20232;-93
2023/05/20 13:59:51;;;;;;;3.50;1.93;;;14.10;99.90;;;;;;4935164;29;20348;-94
2023/05/20 14:02:22;;;;;;;5.77;2.20;;;14.20;99.90;;;;;;4921101;29;20213;-95
2023/05/20 14:04:54;;;;;;;6.00;2.30;;;14.20;99.90;;;;;;4917951;29;20240;-93
2023/05/20 14:07:25;;;;;;;4.73;2.00;;;14.20;99.90;;;;;;4917520;29;20296;-92
2023/05/20 14:09:59;;;;;;;4.93;1.67;;;14.20;99.90;;;;;;4916464;29;20208;-93
2023/05/20 14:12:31;;;;;;;3.73;1.80;;;14.30;99.90;;;;;;4916071;29;20308;-94
2023/05/20 14:15:02;;;;;;;6.13;1.87;;;14.40;99.90;;;;;;4914980;29;20216;-93
2023/05/20 14:17:34;;;;;;;6.23;2.17;;;14.40;99.90;;;;;;4916653;29;20784;-92
2023/05/20 14:20:07;;;;;;;4.33;1.90;;;14.50;99.90;;;;;;4917240;29;20817;-94
2023/05/20 14:22:38;;;;;;;5.00;1.77;;;14.60;99.90;;;;;;4917830;29;20213;-93
2023/05/20 14:25:13;;;;;;;3.67;1.70;;;14.60;99.90;;;;;;4917545;29;20307;-94
2023/05/20 14:27:45;;;;;;;6.23;2.00;;;14.70;99.90;;;;;;4917020;29;20243;-93